Thunder radar more information blitzortung!


Löydät sääaseman tiedot myös:

European Weather Network

Finland Weather Exchange

Weather Underground

AWEKAS



Weather Underground säähistoriasivu

Päivittäin yhteenveto Kesäkuu 21, 2017 Yksiköt:  Englantilaiset    Metriset   Molemmat
« Edellinen Päivä
Seuraava Päivä »
Päivittäin Viikoittain Kuukausittain Vuosittain Mukautettu
  Korkea: Matala: Keskiarvo:
Lämpötila: TemperatureC °F 9.6 °F 12.3 °F
Kastepiste: DewpointC °F 6.2 °F 7.7 °F
Kosteus: Humidity % 54 % 73 %
Tuulen nopeus: WindSpeedKMH mph 0.0 mph 2.9 mph
Tuulenpuuska: WindSpeedGustKMH mph - -
Tuuli:- - WNW
Ilmanpaine: PressurehPa in 997.5 in -
Sade: 1.0 in    
Historical Graphs
 
 
Taulukkotiedot Kesäkuu 21, 2017
Aika Lämpötila Kastepiste Ilmanpaine Tuuli Tuulen nopeus Tuulenpuuska Kosteus Sademäärä (tunneittain)
TemperatureC °F DewpointC °F PressurehPa in Calm     Humidity % HourlyPrecipMM in
00:00 10.8 °F 7.5 °F 997.9 in West 1.6 mph 6.4 mph 80 % 0.0 in
00:15 10.7 °F 7.4 °F 997.9 in WSW 1.6 mph 8.0 mph 80 % 0.0 in
00:30 10.7 °F 7.4 °F 997.9 in WSW 1.6 mph 9.7 mph 80 % 0.0 in
00:45 10.6 °F 7.5 °F 997.9 in West 1.6 mph 14.5 mph 81 % 0.0 in
01:00 10.6 °F 7.4 °F 997.5 in West 3.2 mph 14.5 mph 81 % 0.0 in
01:15 10.5 °F 7.4 °F 997.5 in West 1.6 mph 8.0 mph 81 % 0.0 in
01:30 10.5 °F 7.6 °F 997.5 in West 3.2 mph 9.7 mph 82 % 0.0 in
01:45 10.4 °F 7.3 °F 997.5 in WNW 3.2 mph 16.1 mph 81 % 0.0 in
02:00 10.4 °F 7.3 °F 997.9 in West 3.2 mph 9.7 mph 81 % 0.0 in
02:15 10.3 °F 7.3 °F 997.9 in West 1.6 mph 12.9 mph 82 % 0.0 in
02:45 10.1 °F 7.2 °F 997.9 in WNW 3.2 mph 11.3 mph 82 % 0.0 in
03:00 10.1 °F 6.9 °F 997.5 in WNW 3.2 mph 9.7 mph 81 % 0.0 in
03:15 10.0 °F 6.7 °F 997.9 in WNW 4.8 mph 14.5 mph 80 % 0.0 in
03:30 9.9 °F 6.6 °F 997.5 in WNW 3.2 mph 14.5 mph 80 % 0.0 in
03:45 9.8 °F 6.7 °F 997.5 in West 4.8 mph 11.3 mph 81 % 0.0 in
04:00 9.7 °F 6.6 °F 997.9 in West 3.2 mph 11.3 mph 81 % 0.0 in
04:15 9.6 °F 6.6 °F 997.9 in West 3.2 mph 11.3 mph 82 % 0.0 in
04:30 9.6 °F 6.7 °F 997.5 in WNW 3.2 mph 11.3 mph 82 % 0.0 in
04:45 9.8 °F 6.7 °F 997.5 in WNW 3.2 mph 12.9 mph 81 % 0.0 in
05:00 9.7 °F 6.6 °F 997.5 in West 1.6 mph 12.9 mph 81 % 0.0 in
05:15 9.6 °F 6.7 °F 997.9 in West 1.6 mph 8.0 mph 82 % 0.0 in
05:30 9.6 °F 6.8 °F 997.9 in WNW 3.2 mph 14.5 mph 83 % 0.0 in
05:45 9.6 °F 7.0 °F 997.9 in West 1.6 mph 9.7 mph 84 % 0.0 in
06:00 9.7 °F 7.0 °F 997.9 in NW 3.2 mph 12.9 mph 83 % 0.0 in
06:15 9.8 °F 7.1 °F 997.9 in WNW 1.6 mph 11.3 mph 83 % 0.0 in
06:30 10.1 °F 7.3 °F 998.2 in WNW 3.2 mph 16.1 mph 83 % 0.0 in
06:45 10.3 °F 7.4 °F 998.2 in WNW 3.2 mph 12.9 mph 82 % 0.0 in
07:00 10.5 °F 7.7 °F 998.2 in NW 3.2 mph 14.5 mph 83 % 0.0 in
07:15 11.1 °F 7.9 °F 998.2 in WNW 4.8 mph 19.3 mph 81 % 0.0 in
07:30 11.1 °F 7.7 °F 998.2 in NW 3.2 mph 12.9 mph 80 % 0.0 in
07:45 11.2 °F 8.0 °F 998.5 in NW 3.2 mph 9.7 mph 81 % 0.0 in
08:00 11.2 °F 8.2 °F 998.5 in NW 3.2 mph 9.7 mph 82 % 0.0 in
08:30 11.4 °F 8.4 °F 998.9 in NW 4.8 mph 16.1 mph 82 % 0.0 in
08:45 11.4 °F 8.4 °F 998.9 in NW 4.8 mph 12.9 mph 82 % 0.0 in
09:00 11.5 °F 8.4 °F 998.9 in NW 3.2 mph 11.3 mph 81 % 0.0 in
09:15 11.8 °F 8.6 °F 999.2 in NW 3.2 mph 8.0 mph 81 % 0.0 in
09:30 12.3 °F 9.2 °F 999.2 in NW 1.6 mph 11.3 mph 81 % 0.0 in
09:45 12.4 °F 9.1 °F 999.2 in NW 8.0 mph 16.1 mph 80 % 0.0 in
10:00 12.3 °F 9.7 °F 999.5 in NNW 3.2 mph 12.9 mph 84 % 0.0 in
10:15 11.6 °F 9.5 °F 999.5 in NNW 1.6 mph 11.3 mph 87 % 0.0 in
10:30 11.3 °F 9.8 °F 999.9 in NW 1.6 mph 8.0 mph 90 % 0.0 in
10:45 11.5 °F 10.1 °F 999.9 in NW 1.6 mph 8.0 mph 91 % 0.0 in
11:00 11.7 °F 10.1 °F 1000.2 in NNW 1.6 mph 6.4 mph 90 % 0.0 in
11:15 11.2 °F 9.4 °F 1000.2 in Calm     89 % 1.0 in
11:30 10.8 °F 9.6 °F 1000.2 in Calm   1.6 mph 92 % 1.0 in
11:45 11.1 °F 10.0 °F 1000.6 in Calm   4.8 mph 93 % 1.0 in
12:00 11.6 °F 10.5 °F 1000.6 in NNW 1.6 mph 8.0 mph 93 % 1.0 in
12:15 12.4 °F 11.0 °F 1000.9 in Calm   16.1 mph 91 % 0.0 in
12:30 12.8 °F 10.7 °F 1001.2 in NNW 3.2 mph 9.7 mph 87 % 0.0 in
12:45 13.1 °F 9.7 °F 1001.2 in NNW 3.2 mph 14.5 mph 80 % 0.0 in
13:00 13.7 °F 8.7 °F 1001.2 in North 3.2 mph 9.7 mph 72 % 0.0 in
13:15 14.7 °F 7.9 °F 1001.2 in NNW 3.2 mph 16.1 mph 64 % 0.0 in
13:30 14.9 °F 7.0 °F 1001.6 in NNW 4.8 mph 19.3 mph 59 % 0.0 in
13:45 15.2 °F 7.7 °F 1001.6 in NNW 3.2 mph 11.3 mph 61 % 0.0 in
14:00 15.3 °F 6.9 °F 1001.6 in NNW 4.8 mph 19.3 mph 57 % 0.0 in
14:15 15.2 °F 7.0 °F 1001.9 in North 3.2 mph 11.3 mph 58 % 0.0 in
14:30 15.8 °F 7.5 °F 1001.9 in NNW 3.2 mph 11.3 mph 58 % 0.0 in
14:45 15.6 °F 6.8 °F 1002.3 in NW 8.0 mph 22.5 mph 56 % 0.0 in
15:00 15.2 °F 7.0 °F 1002.3 in NW 6.4 mph 19.3 mph 58 % 0.0 in
15:15 15.7 °F 6.7 °F 1002.3 in North 3.2 mph 12.9 mph 55 % 0.0 in
15:30 15.7 °F 6.4 °F 1002.3 in NW 6.4 mph 19.3 mph 54 % 0.0 in
15:45 15.3 °F 6.3 °F 1002.6 in NW 9.7 mph 19.3 mph 55 % 0.0 in
16:00 15.5 °F 6.2 °F 1002.6 in NW 6.4 mph 16.1 mph 54 % 0.0 in
16:15 15.8 °F 6.8 °F 1002.6 in NW 6.4 mph 16.1 mph 55 % 0.0 in
16:30 15.3 °F 6.6 °F 1002.6 in NW 6.4 mph 19.3 mph 56 % 0.0 in
16:45 15.7 °F 6.9 °F 1002.6 in NW 4.8 mph 12.9 mph 56 % 0.0 in
17:00 15.1 °F 6.8 °F 1002.9 in NW 3.2 mph 12.9 mph 58 % 0.0 in
17:15 15.3 °F 7.1 °F 1002.9 in NW 4.8 mph 12.9 mph 58 % 0.0 in
17:30 15.4 °F 6.4 °F 1002.9 in NW 4.8 mph 12.9 mph 55 % 0.0 in
17:45 15.9 °F 7.4 °F 1002.6 in NW 3.2 mph 12.9 mph 57 % 0.0 in
18:00 15.8 °F 6.8 °F 1002.6 in WNW 4.8 mph 17.7 mph 55 % 0.0 in
18:15 15.5 °F 7.3 °F 1002.6 in NW 4.8 mph 14.5 mph 58 % 0.0 in
18:30 15.8 °F 7.3 °F 1002.6 in NW 4.8 mph 22.5 mph 57 % 0.0 in
18:45 16.0 °F 7.0 °F 1002.6 in WNW 6.4 mph 27.4 mph 55 % 0.0 in
19:00 15.7 °F 8.0 °F 1002.9 in NNW 4.8 mph 20.9 mph 60 % 0.0 in
19:15 13.9 °F 8.1 °F 1002.9 in NNW 3.2 mph 9.7 mph 68 % 0.0 in
19:30 13.8 °F 8.2 °F 1002.6 in Calm   4.8 mph 69 % 0.0 in
19:45 14.2 °F 8.6 °F 1002.6 in Calm   1.6 mph 69 % 0.0 in
20:00 14.8 °F 8.7 °F 1002.6 in Calm   4.8 mph 67 % 0.0 in
20:15 14.7 °F 8.6 °F 1002.6 in Calm   8.0 mph 67 % 0.0 in
20:30 14.2 °F 7.5 °F 1002.6 in NW 1.6 mph 8.0 mph 64 % 0.0 in
20:45 14.2 °F 7.7 °F 1002.3 in NW 1.6 mph 8.0 mph 65 % 0.0 in
21:00 14.0 °F 7.5 °F 1002.3 in WNW 1.6 mph 9.7 mph 65 % 0.0 in
21:15 13.7 °F 7.7 °F 1002.3 in West 3.2 mph 14.5 mph 67 % 0.0 in
21:30 13.3 °F 7.5 °F 1002.3 in West 1.6 mph 8.0 mph 68 % 0.0 in
21:45 13.2 °F 7.8 °F 1002.3 in West 1.6 mph 11.3 mph 70 % 0.0 in
22:00 12.9 °F 7.8 °F 1002.6 in Calm   9.7 mph 71 % 0.0 in
22:15 12.4 °F 7.7 °F 1002.6 in Calm   3.2 mph 73 % 0.0 in
22:30 11.9 °F 7.8 °F 1002.6 in Calm   1.6 mph 76 % 0.0 in
22:45 11.4 °F 7.9 °F 1002.6 in Calm     79 % 0.0 in
23:00 11.1 °F 8.0 °F 1002.6 in Calm     81 % 0.0 in
23:15 11.0 °F 8.0 °F 1002.6 in Calm   4.8 mph 82 % 0.0 in
23:30 10.9 °F 8.1 °F 1002.6 in Calm     83 % 0.0 in
23:45 10.7 °F 8.1 °F 1002.6 in Calm     84 % 0.0 in
Esan sääasema
Terveisin Weather Underground - 2.75 mb

Alkuperäinen skripti  Jim McMurry - jmcmurry@mwt.net Sovitettu myös templatelle  Wim van der Kuil - Leuven-Template.eu

Laitteet joita käytämme:

Sääasema
Davis VP2

Sääasemaohjelma
Cumulus

Sääaseman tietokone
Asus EeePC

Palveluntarjoaja
Suncomet

Davis VP2

Cumulus

Asus EeePC

Suncomet